Aviation Digital Data Service (ADDS)

Output produced by METARs form (1440 UTC 22 April 2019)
found at http://www.aviationweather.gov/metar/data/
 
Forecast for: PGRO (ROTA INTL AIRP , FM)
Text: PGRO 220526Z 2206/2306 09014KT P6SM SCT013
Forecast period: 0600 UTC 22 April 2019 to 0600 UTC 23 April 2019
Forecast type: FROM: standard forecast or significant change
Winds: from the E (90 degrees) at 16 MPH (14 knots; 7.2 m/s)
Visibility: 6 or more miles 10+ km)
Ceiling: at least 12,000 feet AGL
Clouds: scattered clouds at 1300 feet AGL
Weather: no significant weather forecast for this period